createdAt,value
2023-12-15T00:00:06.401Z,5.20
2023-12-15T00:02:36.080Z,4.10
2023-12-15T00:05:05.649Z,5.00
2023-12-15T00:07:34.435Z,6.10
2023-12-15T00:10:03.389Z,4.40
2023-12-15T00:12:32.074Z,6.40
2023-12-15T00:15:00.657Z,7.50
2023-12-15T00:17:29.036Z,8.30
2023-12-15T00:19:57.581Z,8.20
2023-12-15T00:22:25.915Z,7.00
2023-12-15T00:24:54.954Z,7.60
2023-12-15T00:27:23.289Z,4.60
2023-12-15T00:29:51.704Z,7.60
2023-12-15T00:32:20.296Z,1.90
2023-12-15T00:34:49.064Z,3.30
2023-12-15T00:37:17.662Z,5.40
2023-12-15T00:39:45.933Z,8.60
2023-12-15T00:42:14.250Z,3.70
2023-12-15T00:44:42.917Z,4.90
2023-12-15T00:47:11.500Z,5.00
2023-12-15T00:49:39.774Z,2.20
2023-12-15T00:52:08.331Z,1.10
2023-12-15T00:54:36.929Z,5.80
2023-12-15T00:57:05.688Z,4.30
2023-12-15T00:59:34.437Z,4.40
2023-12-15T01:02:05.609Z,5.30
2023-12-15T01:04:34.451Z,6.80
2023-12-15T01:07:03.106Z,6.90
2023-12-15T01:09:31.524Z,3.10
2023-12-15T01:12:00.415Z,5.60
2023-12-15T01:14:29.144Z,5.10
2023-12-15T01:16:57.597Z,2.10
2023-12-15T01:19:28.777Z,3.60
2023-12-15T01:21:57.975Z,2.90
2023-12-15T01:24:26.312Z,4.40
2023-12-15T01:26:54.903Z,2.40
2023-12-15T01:29:23.376Z,2.10
2023-12-15T01:31:51.768Z,9.40
2023-12-15T01:34:20.719Z,2.70
2023-12-15T01:36:49.618Z,5.00
2023-12-15T01:39:18.307Z,5.30
2023-12-15T01:41:46.790Z,8.90
2023-12-15T01:44:15.200Z,6.90
2023-12-15T01:46:44.172Z,8.00
2023-12-15T01:49:12.590Z,6.90
2023-12-15T01:51:41.417Z,15.00
2023-12-15T01:54:09.794Z,7.20
2023-12-15T01:56:38.693Z,6.60
2023-12-15T01:59:07.061Z,3.60
2023-12-15T02:01:35.455Z,16.60
2023-12-15T02:04:03.956Z,5.10
2023-12-15T02:06:32.296Z,9.50
2023-12-15T02:09:01.209Z,17.60
2023-12-15T02:11:30.024Z,4.80
2023-12-15T02:13:58.482Z,2.90
2023-12-15T02:16:26.861Z,10.80
2023-12-15T02:18:55.307Z,13.60
2023-12-15T02:21:24.159Z,6.30
2023-12-15T02:23:52.398Z,7.20
2023-12-15T02:26:20.911Z,7.60
2023-12-15T02:28:49.439Z,8.30
2023-12-15T02:31:19.266Z,5.30
2023-12-15T02:33:48.072Z,11.80
2023-12-15T02:36:20.305Z,4.50
2023-12-15T02:38:48.930Z,11.90
2023-12-15T02:41:17.646Z,6.30
2023-12-15T02:43:46.032Z,6.00
2023-12-15T02:46:14.472Z,6.30
2023-12-15T02:48:42.855Z,14.70
2023-12-15T02:51:11.598Z,10.90
2023-12-15T02:53:40.841Z,3.60
2023-12-15T02:56:10.769Z,4.70
2023-12-15T02:58:40.106Z,7.40
2023-12-15T03:01:08.475Z,9.60
2023-12-15T03:03:37.332Z,4.70
2023-12-15T03:06:06.890Z,5.00
2023-12-15T03:08:35.330Z,10.20
2023-12-15T03:11:03.994Z,8.30
2023-12-15T03:13:32.652Z,8.80
2023-12-15T03:16:06.569Z,8.40
2023-12-15T03:18:34.983Z,2.10
2023-12-15T03:21:03.571Z,17.00
2023-12-15T03:23:32.473Z,8.20
2023-12-15T03:26:01.031Z,5.90
2023-12-15T03:28:31.926Z,7.10
2023-12-15T03:31:02.913Z,4.90
2023-12-15T03:33:37.231Z,11.40
2023-12-15T03:36:08.277Z,7.70
2023-12-15T03:38:36.763Z,14.10
2023-12-15T03:41:07.153Z,6.10
2023-12-15T03:43:36.139Z,14.80
2023-12-15T03:46:05.729Z,6.00
2023-12-15T03:48:34.203Z,8.80
2023-12-15T03:51:03.060Z,10.60
2023-12-15T03:53:31.946Z,16.40
2023-12-15T03:56:00.403Z,3.50
2023-12-15T03:58:28.750Z,12.40
2023-12-15T04:00:57.149Z,5.70
2023-12-15T04:03:25.601Z,17.20
2023-12-15T04:05:54.008Z,16.10
2023-12-15T04:08:22.514Z,3.90
2023-12-15T04:10:50.907Z,4.40
2023-12-15T04:13:19.278Z,14.30
2023-12-15T04:15:49.876Z,2.70
2023-12-15T04:18:18.314Z,9.00
2023-12-15T04:20:46.772Z,10.80
2023-12-15T04:23:16.896Z,7.60
2023-12-15T04:25:45.594Z,6.50
2023-12-15T04:28:14.050Z,8.40
2023-12-15T04:30:42.317Z,11.30
2023-12-15T04:33:11.041Z,6.10
2023-12-15T04:35:39.433Z,10.70
2023-12-15T04:38:07.975Z,12.90
2023-12-15T04:40:36.335Z,7.10
2023-12-15T04:43:04.723Z,13.10
2023-12-15T04:45:34.525Z,12.20
2023-12-15T04:48:03.401Z,13.70
2023-12-15T04:50:32.944Z,2.20
2023-12-15T04:53:02.692Z,1.60
2023-12-15T04:55:31.045Z,13.50
2023-12-15T04:57:59.762Z,6.20
2023-12-15T05:00:28.307Z,11.40
2023-12-15T05:02:56.892Z,3.50
2023-12-15T05:05:25.373Z,2.60
2023-12-15T05:07:54.268Z,9.90
2023-12-15T05:10:22.790Z,7.40
2023-12-15T05:12:51.373Z,3.30
2023-12-15T05:15:20.937Z,8.30
2023-12-15T05:17:50.430Z,4.20
2023-12-15T05:20:20.622Z,5.30
2023-12-15T05:22:49.201Z,5.40
2023-12-15T05:25:17.648Z,5.50
2023-12-15T05:27:45.961Z,12.90
2023-12-15T05:30:15.383Z,3.70
2023-12-15T05:32:44.433Z,9.00
2023-12-15T05:35:12.922Z,3.20
2023-12-15T05:37:41.444Z,7.10
2023-12-15T05:40:13.047Z,7.80
2023-12-15T05:42:41.338Z,9.30
2023-12-15T05:45:11.597Z,7.70
2023-12-15T05:47:41.366Z,11.30
2023-12-15T05:50:13.522Z,8.40
2023-12-15T05:52:41.949Z,8.30
2023-12-15T05:55:10.529Z,8.40
2023-12-15T05:57:39.662Z,10.50
2023-12-15T06:00:10.737Z,14.00
2023-12-15T06:02:39.380Z,6.70
2023-12-15T06:05:08.711Z,14.50
2023-12-15T06:07:37.398Z,8.60
2023-12-15T06:10:08.134Z,7.50
2023-12-15T06:12:36.425Z,8.40
2023-12-15T06:15:12.443Z,3.70
2023-12-15T06:17:43.176Z,9.30
2023-12-15T06:20:14.495Z,7.50
2023-12-15T06:22:43.191Z,8.00
2023-12-15T06:25:14.564Z,12.70
2023-12-15T06:27:42.923Z,11.70
2023-12-15T06:30:14.096Z,6.10
2023-12-15T06:32:42.581Z,8.00
2023-12-15T06:35:11.068Z,7.10
2023-12-15T06:37:39.685Z,11.20
2023-12-15T06:40:10.096Z,7.60
2023-12-15T06:42:38.839Z,10.10
2023-12-15T06:45:09.898Z,12.10
2023-12-15T06:47:39.287Z,5.80
2023-12-15T06:50:10.158Z,8.80
2023-12-15T06:52:39.254Z,8.40
2023-12-15T06:55:08.706Z,11.60
2023-12-15T06:57:37.607Z,9.80
2023-12-15T07:00:08.712Z,7.80
2023-12-15T07:02:37.423Z,10.90
2023-12-15T07:05:08.168Z,16.40
2023-12-15T07:07:37.443Z,10.80
2023-12-15T07:10:08.303Z,12.20
2023-12-15T07:12:36.711Z,8.10
2023-12-15T07:15:06.972Z,13.10
2023-12-15T07:17:35.690Z,7.70
2023-12-15T07:20:06.284Z,5.00
2023-12-15T07:22:34.657Z,6.90
2023-12-15T07:25:03.238Z,5.20
2023-12-15T07:27:31.507Z,6.30
2023-12-15T07:29:59.921Z,3.30
2023-12-15T07:32:28.524Z,15.00
2023-12-15T07:34:58.321Z,11.60
2023-12-15T07:37:26.612Z,6.50
2023-12-15T07:39:56.414Z,10.70
2023-12-15T07:42:24.772Z,10.40
2023-12-15T07:44:53.208Z,6.00
2023-12-15T07:47:21.471Z,10.60
2023-12-15T07:49:49.864Z,4.10
2023-12-15T07:52:18.146Z,8.80
2023-12-15T07:54:46.946Z,8.40
2023-12-15T07:57:16.271Z,8.90
2023-12-15T07:59:44.787Z,7.20
2023-12-15T08:02:13.111Z,11.30
2023-12-15T08:04:42.046Z,13.90
2023-12-15T08:07:11.479Z,11.90
2023-12-15T08:09:40.146Z,12.00
2023-12-15T08:12:10.056Z,13.90
2023-12-15T08:14:38.495Z,7.80
2023-12-15T08:17:06.998Z,6.60
2023-12-15T08:19:35.579Z,2.60
2023-12-15T08:22:04.302Z,8.20
2023-12-15T08:24:32.966Z,20.40
2023-12-15T08:27:01.840Z,9.10
2023-12-15T08:29:30.273Z,20.70
2023-12-15T08:31:58.849Z,25.50
2023-12-15T08:34:28.552Z,15.80
2023-12-15T08:36:57.146Z,20.80
2023-12-15T08:39:25.526Z,9.50
2023-12-15T08:41:53.955Z,20.00
2023-12-15T08:44:29.266Z,16.30
2023-12-15T08:47:02.760Z,16.90
2023-12-15T08:49:31.375Z,9.00
2023-12-15T08:51:59.760Z,21.10
2023-12-15T08:54:28.801Z,17.30
2023-12-15T08:56:57.323Z,12.90
2023-12-15T08:59:25.810Z,11.50
2023-12-15T09:01:54.599Z,12.60
2023-12-15T09:04:23.491Z,5.90
2023-12-15T09:06:53.067Z,6.40
2023-12-15T09:09:22.460Z,16.90
2023-12-15T09:11:50.820Z,7.50
2023-12-15T09:14:22.039Z,9.30
2023-12-15T09:16:50.496Z,13.70
2023-12-15T09:19:19.145Z,18.00
2023-12-15T09:21:48.041Z,6.40
2023-12-15T09:24:18.468Z,28.10
2023-12-15T09:26:47.167Z,6.50
2023-12-15T09:29:16.289Z,26.20
2023-12-15T09:31:44.843Z,16.40
2023-12-15T09:34:14.289Z,14.00
2023-12-15T09:36:43.532Z,17.00
2023-12-15T09:39:12.971Z,13.40
2023-12-15T09:41:41.392Z,3.00
2023-12-15T09:44:09.733Z,14.60
2023-12-15T09:46:38.655Z,15.90
2023-12-15T09:49:07.132Z,13.20
2023-12-15T09:51:38.214Z,14.20
2023-12-15T09:54:06.932Z,22.50
2023-12-15T09:56:35.204Z,33.10
2023-12-15T09:59:04.266Z,10.60
2023-12-15T10:01:34.224Z,14.40
2023-12-15T10:04:03.108Z,11.10
2023-12-15T10:06:34.944Z,11.30
2023-12-15T10:09:03.997Z,10.40
2023-12-15T10:11:35.109Z,19.50
2023-12-15T10:14:05.261Z,13.70
2023-12-15T10:16:33.802Z,16.00
2023-12-15T10:19:04.653Z,17.60
2023-12-15T10:21:33.877Z,10.10
2023-12-15T10:24:19.054Z,6.90
2023-12-15T10:26:47.541Z,24.40
2023-12-15T10:29:16.027Z,16.40
2023-12-15T10:31:44.424Z,11.90
2023-12-15T10:34:12.775Z,14.70
2023-12-15T10:36:45.420Z,13.60
2023-12-15T10:39:14.338Z,29.50
2023-12-15T10:41:43.364Z,22.70
2023-12-15T10:44:13.033Z,24.80
2023-12-15T10:46:43.048Z,21.90
2023-12-15T10:49:13.861Z,35.70
2023-12-15T10:51:44.187Z,18.90
2023-12-15T10:54:12.458Z,29.80
2023-12-15T10:56:40.804Z,16.80
2023-12-15T10:59:10.067Z,29.10
2023-12-15T11:01:40.910Z,21.80
2023-12-15T11:04:20.195Z,27.20
2023-12-15T11:06:49.384Z,18.60
2023-12-15T11:09:36.192Z,21.30
2023-12-15T11:12:29.675Z,5.80
2023-12-15T11:15:03.801Z,6.20
2023-12-15T11:20:06.810Z,32.70
2023-12-15T11:22:54.425Z,11.30
2023-12-15T11:25:31.183Z,6.60
2023-12-15T11:28:00.471Z,25.10
2023-12-15T11:30:36.878Z,28.30
2023-12-15T11:33:40.519Z,25.50
2023-12-15T11:36:10.134Z,10.20
2023-12-15T11:38:39.888Z,18.80
2023-12-15T11:41:11.341Z,14.00
2023-12-15T11:43:44.032Z,21.40
2023-12-15T11:46:12.621Z,24.00
2023-12-15T11:48:42.242Z,17.40
2023-12-15T11:51:11.041Z,20.00
2023-12-15T11:53:42.156Z,22.50
2023-12-15T11:56:12.012Z,26.40
2023-12-15T11:58:40.797Z,20.10
2023-12-15T12:01:09.417Z,16.90
2023-12-15T12:03:37.872Z,18.00
2023-12-15T12:06:09.235Z,26.60
2023-12-15T12:08:37.907Z,29.60
2023-12-15T12:11:09.310Z,35.20
2023-12-15T12:13:40.166Z,13.90
2023-12-15T12:16:08.859Z,41.40
2023-12-15T12:18:37.552Z,19.30
2023-12-15T12:21:08.314Z,23.80
2023-12-15T12:23:43.352Z,12.70
2023-12-15T12:26:15.668Z,19.10
2023-12-15T12:28:48.948Z,22.10
2023-12-15T12:31:17.318Z,22.90
2023-12-15T12:33:46.160Z,29.40
2023-12-15T12:36:15.521Z,35.70
2023-12-15T12:38:43.932Z,21.60
2023-12-15T12:41:13.101Z,9.40
2023-12-15T12:43:42.170Z,16.40
2023-12-15T12:46:12.143Z,33.50
2023-12-15T12:48:41.203Z,14.40
2023-12-15T12:51:09.835Z,12.50
2023-12-15T12:53:38.244Z,23.40
2023-12-15T12:56:08.217Z,26.30
2023-12-15T12:58:36.825Z,29.50
2023-12-15T13:01:05.859Z,28.40
2023-12-15T13:03:34.385Z,37.60
2023-12-15T13:06:03.057Z,19.30
2023-12-15T13:08:31.844Z,16.60
2023-12-15T13:11:00.614Z,24.70
2023-12-15T13:13:29.125Z,19.20
2023-12-15T13:15:57.550Z,37.60
2023-12-15T13:18:26.097Z,13.30
2023-12-15T13:20:54.631Z,11.00
2023-12-15T13:23:23.514Z,23.40
2023-12-15T13:25:52.371Z,28.70
2023-12-15T13:28:21.390Z,25.90
2023-12-15T13:30:50.574Z,27.40
2023-12-15T13:33:19.238Z,31.70
2023-12-15T13:35:48.521Z,20.40
2023-12-15T13:38:18.418Z,31.20
2023-12-15T13:40:47.024Z,27.50
2023-12-15T13:43:15.394Z,10.70
2023-12-15T13:45:50.604Z,21.10
2023-12-15T13:48:22.675Z,18.90
2023-12-15T13:50:51.287Z,42.50
2023-12-15T13:53:20.063Z,22.00
2023-12-15T13:55:48.620Z,46.10
2023-12-15T13:58:20.451Z,32.20
2023-12-15T14:00:49.372Z,19.10
2023-12-15T14:03:17.893Z,36.20
2023-12-15T14:05:46.307Z,19.10
2023-12-15T14:08:20.126Z,17.00
2023-12-15T14:10:49.083Z,25.50
2023-12-15T14:13:17.590Z,25.40
2023-12-15T14:15:47.364Z,22.50
2023-12-15T14:18:15.953Z,17.70
2023-12-15T14:20:44.484Z,23.20
2023-12-15T14:23:13.549Z,22.90
2023-12-15T14:25:43.606Z,17.20
2023-12-15T14:28:12.278Z,11.20
2023-12-15T14:30:41.654Z,18.00
2023-12-15T14:33:10.304Z,16.70
2023-12-15T14:35:38.968Z,26.10
2023-12-15T14:38:09.261Z,16.50
2023-12-15T14:40:37.699Z,5.10
2023-12-15T14:43:06.500Z,26.40
2023-12-15T14:45:34.868Z,15.40
2023-12-15T14:48:19.598Z,17.20
2023-12-15T14:50:50.442Z,16.80
2023-12-15T14:53:18.961Z,19.10
2023-12-15T14:55:47.606Z,27.80
2023-12-15T14:58:16.610Z,17.80
2023-12-15T15:00:45.174Z,21.40
2023-12-15T15:03:14.499Z,9.40
2023-12-15T15:05:44.711Z,23.50
2023-12-15T15:08:14.352Z,26.50
2023-12-15T15:10:42.874Z,13.90
2023-12-15T15:13:11.170Z,26.80
2023-12-15T15:15:39.500Z,15.10
2023-12-15T15:18:07.925Z,30.90
2023-12-15T15:20:36.351Z,16.90
2023-12-15T15:23:04.853Z,23.40
2023-12-15T15:25:33.168Z,37.90
2023-12-15T15:28:01.480Z,13.70
2023-12-15T15:30:30.159Z,25.30
2023-12-15T15:32:58.650Z,26.00
2023-12-15T15:35:28.846Z,13.90
2023-12-15T15:37:58.255Z,20.20
2023-12-15T15:40:26.547Z,14.10
2023-12-15T15:42:54.955Z,33.30
2023-12-15T15:45:23.800Z,22.70
2023-12-15T15:47:54.734Z,11.80
2023-12-15T15:50:23.085Z,30.70
2023-12-15T15:52:52.314Z,33.70
2023-12-15T15:55:20.891Z,23.60
2023-12-15T15:57:49.736Z,29.60
2023-12-15T16:00:20.862Z,26.10
2023-12-15T16:02:51.446Z,14.60
2023-12-15T16:05:21.114Z,11.10
2023-12-15T16:07:50.086Z,12.80
2023-12-15T16:10:18.524Z,7.20
2023-12-15T16:12:47.128Z,19.20
2023-12-15T16:15:17.199Z,16.70
2023-12-15T16:17:46.197Z,17.40
2023-12-15T16:20:14.763Z,20.40
2023-12-15T16:22:43.145Z,25.10
2023-12-15T16:25:11.568Z,23.60
2023-12-15T16:27:41.566Z,11.70
2023-12-15T16:30:14.205Z,40.00
2023-12-15T16:32:43.631Z,28.30
2023-12-15T16:35:12.176Z,8.20
2023-12-15T16:37:41.682Z,12.50
2023-12-15T16:40:12.131Z,23.70
2023-12-15T16:42:45.025Z,17.00
2023-12-15T16:45:14.444Z,14.90
2023-12-15T16:47:44.073Z,15.00
2023-12-15T16:50:12.956Z,14.80
2023-12-15T16:52:41.438Z,22.90
2023-12-15T16:55:10.469Z,18.40
2023-12-15T16:57:40.521Z,17.60
2023-12-15T17:00:12.296Z,12.30
2023-12-15T17:02:42.187Z,19.40
2023-12-15T17:05:10.936Z,11.10
2023-12-15T17:07:39.480Z,26.00
2023-12-15T17:10:09.219Z,22.90
2023-12-15T17:12:37.772Z,13.90
2023-12-15T17:15:08.941Z,16.10
2023-12-15T17:17:39.464Z,15.50
2023-12-15T17:20:11.466Z,14.50
2023-12-15T17:22:40.552Z,25.90
2023-12-15T17:25:11.697Z,25.40
2023-12-15T17:27:41.160Z,11.70
2023-12-15T17:30:12.032Z,32.50
2023-12-15T17:32:42.734Z,7.40
2023-12-15T17:35:11.714Z,17.40
2023-12-15T17:37:40.085Z,19.50
2023-12-15T17:40:10.679Z,22.50
2023-12-15T17:42:39.210Z,21.40
2023-12-15T17:45:09.820Z,9.10
2023-12-15T17:47:38.491Z,14.60
2023-12-15T17:50:09.008Z,11.90
2023-12-15T17:52:37.494Z,24.40
2023-12-15T17:55:07.177Z,18.30
2023-12-15T17:57:36.157Z,17.10
2023-12-15T18:00:07.488Z,20.10
2023-12-15T18:02:35.852Z,10.00
2023-12-15T18:05:05.108Z,30.10
2023-12-15T18:07:33.433Z,12.10
2023-12-15T18:10:02.017Z,13.50
2023-12-15T18:12:30.414Z,21.60
2023-12-15T18:14:58.917Z,16.60
2023-12-15T18:17:27.428Z,20.10
2023-12-15T18:19:55.984Z,18.80
2023-12-15T18:22:24.509Z,15.00
2023-12-15T18:24:52.970Z,13.30
2023-12-15T18:27:23.143Z,26.80
2023-12-15T18:29:52.261Z,10.40
2023-12-15T18:32:20.633Z,26.10
2023-12-15T18:34:49.086Z,13.00
2023-12-15T18:37:18.322Z,19.30
2023-12-15T18:39:47.598Z,26.00
2023-12-15T18:42:17.106Z,8.00
2023-12-15T18:44:45.850Z,15.10
2023-12-15T18:47:15.353Z,21.60
2023-12-15T18:49:43.969Z,18.20
2023-12-15T18:52:13.757Z,23.00
2023-12-15T18:54:43.691Z,30.10
2023-12-15T18:57:12.997Z,18.40
2023-12-15T18:59:41.829Z,23.70
2023-12-15T19:02:11.573Z,17.00
2023-12-15T19:04:41.437Z,26.10
2023-12-15T19:07:10.158Z,14.30
2023-12-15T19:09:39.190Z,24.10
2023-12-15T19:12:08.590Z,38.30
2023-12-15T19:14:38.833Z,13.60
2023-12-15T19:17:07.413Z,27.50
2023-12-15T19:19:35.899Z,28.90
2023-12-15T19:22:06.771Z,31.70
2023-12-15T19:24:35.223Z,32.80
2023-12-15T19:27:04.462Z,36.20
2023-12-15T19:29:32.849Z,19.60
2023-12-15T19:32:01.821Z,35.80
2023-12-15T19:34:30.385Z,22.30
2023-12-15T19:37:00.805Z,13.60
2023-12-15T19:39:29.113Z,35.60
2023-12-15T19:41:57.612Z,13.20
2023-12-15T19:44:28.413Z,22.10
2023-12-15T19:46:56.765Z,27.80
2023-12-15T19:49:28.732Z,20.10
2023-12-15T19:51:58.139Z,31.80
2023-12-15T19:54:26.434Z,29.80
2023-12-15T19:56:54.903Z,26.60
2023-12-15T19:59:25.212Z,25.70
2023-12-15T20:01:56.563Z,30.70
2023-12-15T20:04:25.114Z,23.00
2023-12-15T20:06:53.681Z,37.00
2023-12-15T20:09:22.131Z,38.40
2023-12-15T20:11:50.593Z,36.40
2023-12-15T20:14:18.940Z,22.10
2023-12-15T20:16:47.234Z,38.70
2023-12-15T20:19:15.825Z,34.90
2023-12-15T20:21:44.310Z,37.60
2023-12-15T20:24:13.843Z,23.50
2023-12-15T20:26:43.433Z,18.90
2023-12-15T20:29:12.097Z,41.70
2023-12-15T20:31:44.298Z,20.80
2023-12-15T20:34:13.220Z,27.90
2023-12-15T20:36:41.794Z,22.50
2023-12-15T20:39:15.535Z,34.30
2023-12-15T20:41:43.913Z,26.00
2023-12-15T20:44:14.834Z,49.50
2023-12-15T20:46:45.995Z,27.30
2023-12-15T20:49:14.633Z,45.10
2023-12-15T20:51:43.418Z,26.80
2023-12-15T20:54:13.303Z,31.90
2023-12-15T20:56:42.778Z,46.30
2023-12-15T20:59:11.645Z,37.10
2023-12-15T21:01:40.195Z,26.10
2023-12-15T21:04:08.758Z,32.20
2023-12-15T21:06:37.294Z,35.10
2023-12-15T21:09:06.087Z,64.50
2023-12-15T21:11:35.901Z,26.70
2023-12-15T21:14:04.660Z,35.50
2023-12-15T21:16:34.872Z,37.80
2023-12-15T21:19:03.356Z,32.50
2023-12-15T21:21:34.661Z,34.00
2023-12-15T21:24:03.874Z,23.50
2023-12-15T21:26:32.946Z,41.10
2023-12-15T21:29:01.281Z,40.70
2023-12-15T21:31:31.712Z,49.20
2023-12-15T21:34:00.536Z,39.70
2023-12-15T21:36:29.075Z,35.30
2023-12-15T21:38:57.486Z,33.10
2023-12-15T21:41:27.114Z,45.00
2023-12-15T21:43:55.911Z,35.70
2023-12-15T21:46:24.292Z,62.20
2023-12-15T21:48:55.656Z,43.10
2023-12-15T21:51:27.177Z,34.10
2023-12-15T21:53:55.590Z,46.50
2023-12-15T21:56:23.888Z,45.80
2023-12-15T21:58:54.399Z,29.90
2023-12-15T22:01:23.156Z,40.80
2023-12-15T22:03:52.886Z,58.60
2023-12-15T22:06:21.879Z,32.10
2023-12-15T22:08:50.540Z,56.90
2023-12-15T22:11:19.069Z,36.20
2023-12-15T22:13:47.392Z,38.70
2023-12-15T22:16:15.858Z,36.20
2023-12-15T22:18:44.427Z,24.40
2023-12-15T22:21:13.464Z,41.70
2023-12-15T22:23:41.920Z,26.00
2023-12-15T22:26:13.557Z,43.60
2023-12-15T22:28:42.744Z,25.00
2023-12-15T22:31:11.284Z,38.10
2023-12-15T22:33:40.548Z,38.90
2023-12-15T22:36:09.650Z,40.50
2023-12-15T22:38:39.424Z,55.70
2023-12-15T22:41:12.959Z,46.10
2023-12-15T22:43:42.345Z,38.70
2023-12-15T22:46:10.866Z,72.90
2023-12-15T22:48:42.386Z,35.90
2023-12-15T22:51:11.033Z,54.10
2023-12-15T22:53:39.591Z,16.10
2023-12-15T22:56:10.310Z,76.40
2023-12-15T22:58:38.941Z,69.10
2023-12-15T23:01:07.856Z,49.50
2023-12-15T23:03:37.892Z,68.00
2023-12-15T23:06:07.253Z,43.10
2023-12-15T23:08:35.844Z,37.40
2023-12-15T23:11:04.842Z,59.90
2023-12-15T23:13:34.301Z,61.00
2023-12-15T23:16:03.144Z,44.00
2023-12-15T23:18:31.898Z,43.10
2023-12-15T23:21:07.079Z,33.30
2023-12-15T23:23:40.877Z,37.90
2023-12-15T23:26:09.974Z,42.70
2023-12-15T23:28:38.636Z,39.00
2023-12-15T23:31:07.809Z,67.40
2023-12-15T23:33:36.481Z,49.60
2023-12-15T23:36:11.741Z,44.80
2023-12-15T23:38:41.333Z,22.70
2023-12-15T23:41:09.888Z,55.90
2023-12-15T23:43:38.288Z,47.30
2023-12-15T23:46:06.673Z,50.90
2023-12-15T23:48:35.283Z,56.40
2023-12-15T23:51:04.744Z,58.50
2023-12-15T23:53:33.202Z,41.60
2023-12-15T23:56:01.798Z,34.30
2023-12-15T23:58:31.668Z,42.20
